Cambridge, Vermont
Current Conditions -  °F | °C
As of 6:54 PM on Sunday 23 Nov 2014 (Local Time) from KBTV Reporting Station
Broken Clouds Broken Clouds  
Wind Chill: 45°   Ceiling: 6000
Heat Index: 48°   Visibility: 10mi
Dew Point: 38°   Wind: 7mph
Humidity: 68%   Direction: 170°S
Pressure: 30.04"   Gusts: NA
Location:  44.64°N, 72.88°W
Report Text: KBTV 232354Z 17006KT 10SM BKN060 09/03 A3004 RMK AO2 SLP175 T00890033 10111 20072 51001
Loading
Personal Weather Stations






























Interactive Weather Map New forecast layout! Learn more

10-Day Weather Forecast

Advertisements
Track Severe Weather on mobile